Fruit Cove, Florida
Current Conditions -  °F | °C
As of 10:53 AM on Thursday 18 Dec 2014 (Local Time) from KNIP Reporting Station
Broken Clouds Broken Clouds  
Wind Chill: 57°   Ceiling: 25000
Heat Index: 57°   Visibility: 10mi
Dew Point: 44°   Wind: 0mph
Humidity: 62%   Direction: NA
Pressure: 30.21"   Gusts: NA
Location:  30.0735°N, 81.5808°W
Report Text: KNIP 181553Z 00000KT 10SM BKN250 14/07 A3021 RMK SLP225 T01390067
Loading
Personal Weather Stations






























Interactive Weather Map New forecast layout! Learn more

10-Day Weather Forecast

Advertisements
Track Severe Weather on mobile